createdAt,value
2023-12-07T00:00:29.054Z,-23498.25
2023-12-07T00:02:56.721Z,-23498.18
2023-12-07T00:08:20.251Z,-23498.53
2023-12-07T00:10:48.451Z,-23497.45
2023-12-07T00:13:16.373Z,-23496.88
2023-12-07T00:15:44.357Z,-23496.69
2023-12-07T00:18:12.332Z,-23496.66
2023-12-07T00:20:39.974Z,-23496.34
2023-12-07T00:29:47.537Z,-23496.12
2023-12-07T00:32:15.194Z,-23495.04
2023-12-07T00:34:43.829Z,-23494.91
2023-12-07T00:37:11.629Z,-23494.08
2023-12-07T00:39:43.119Z,-23493.54
2023-12-07T00:42:13.885Z,-23493.36
2023-12-07T00:44:42.294Z,-23492.75
2023-12-07T00:47:10.101Z,-23492.33
2023-12-07T00:49:42.334Z,-23491.86
2023-12-07T00:52:11.814Z,-23491.25
2023-12-07T00:54:40.992Z,-23490.90
2023-12-07T00:57:09.280Z,-23490.53
2023-12-07T00:59:37.829Z,-23490.33
2023-12-07T01:02:06.425Z,-23490.21
2023-12-07T01:04:34.615Z,-23489.96
2023-12-07T01:07:03.183Z,-23490.08
2023-12-07T01:09:32.010Z,-23489.99
2023-12-07T01:12:00.749Z,-23489.86
2023-12-07T01:14:29.223Z,-23489.73
2023-12-07T01:16:57.431Z,-23489.80
2023-12-07T01:19:26.427Z,-23489.41
2023-12-07T01:21:54.949Z,-23488.46
2023-12-07T01:24:23.253Z,-23488.08
2023-12-07T01:26:53.592Z,-23488.11
2023-12-07T01:29:21.405Z,-23488.40
2023-12-07T01:31:49.842Z,-23487.79
2023-12-07T01:34:20.249Z,-23487.09
2023-12-07T01:36:48.824Z,-23486.84
2023-12-07T01:39:18.022Z,-23486.56
2023-12-07T01:41:46.955Z,-23485.54
2023-12-07T01:44:16.926Z,-23485.32
2023-12-07T01:46:47.439Z,-23485.00
2023-12-07T01:49:17.692Z,-23484.71
2023-12-07T01:51:46.336Z,-23484.33
2023-12-07T01:54:14.381Z,-23484.23
2023-12-07T01:56:45.340Z,-23483.06
2023-12-07T01:59:14.487Z,-23482.39
2023-12-07T02:01:45.905Z,-23482.39
2023-12-07T02:04:13.963Z,-23482.27
2023-12-07T02:06:44.962Z,-23482.14
2023-12-07T02:09:15.211Z,-23481.98
2023-12-07T02:11:44.452Z,-23481.76
2023-12-07T02:14:13.470Z,-23481.38
2023-12-07T02:16:48.031Z,-23480.74
2023-12-07T02:19:44.661Z,-23480.04
2023-12-07T02:22:24.812Z,-23479.69
2023-12-07T02:25:01.957Z,-23479.63
2023-12-07T02:27:40.726Z,-23479.76
2023-12-07T02:30:11.535Z,-23479.69
2023-12-07T02:32:43.226Z,-23479.63
2023-12-07T02:35:17.521Z,-23479.15
2023-12-07T02:37:51.348Z,-23478.58
2023-12-07T02:40:26.704Z,-23478.20
2023-12-07T02:42:56.804Z,-23478.27
2023-12-07T02:45:28.051Z,-23477.92
2023-12-07T02:48:02.190Z,-23477.72
2023-12-07T02:50:31.815Z,-23477.16
2023-12-07T02:53:00.090Z,-23476.65
2023-12-07T02:55:28.557Z,-23475.91
2023-12-07T02:58:00.746Z,-23475.28
2023-12-07T03:00:30.189Z,-23474.52
2023-12-07T03:02:57.875Z,-23474.13
2023-12-07T03:05:29.557Z,-23473.94
2023-12-07T03:07:59.180Z,-23473.57
2023-12-07T03:10:29.006Z,-23473.19
2023-12-07T03:12:57.872Z,-23472.71
2023-12-07T03:15:28.730Z,-23472.01
2023-12-07T03:18:01.858Z,-23471.44
2023-12-07T03:20:31.808Z,-23470.93
2023-12-07T03:23:02.466Z,-23470.48
2023-12-07T03:25:31.859Z,-23470.07
2023-12-07T03:28:00.715Z,-23469.91
2023-12-07T03:30:29.441Z,-23469.91
2023-12-07T03:33:00.408Z,-23470.04
2023-12-07T03:35:29.111Z,-23470.07
2023-12-07T03:37:59.804Z,-23469.94
2023-12-07T03:40:35.776Z,-23469.59
2023-12-07T03:43:08.156Z,-23469.37
2023-12-07T03:45:36.450Z,-23468.96
2023-12-07T03:48:06.391Z,-23468.70
2023-12-07T03:50:36.665Z,-23468.29
2023-12-07T03:53:06.277Z,-23467.34
2023-12-07T03:55:35.383Z,-23466.96
2023-12-07T03:58:04.537Z,-23467.11
2023-12-07T04:00:36.870Z,-23467.11
2023-12-07T04:03:06.351Z,-23466.93
2023-12-07T04:05:35.759Z,-23466.77
2023-12-07T04:08:03.699Z,-23466.35
2023-12-07T04:10:33.838Z,-23466.03
2023-12-07T04:13:02.929Z,-23465.84
2023-12-07T04:15:33.028Z,-23465.53
2023-12-07T04:18:05.713Z,-23465.18
2023-12-07T04:20:33.469Z,-23464.86
2023-12-07T04:23:08.499Z,-23464.09
2023-12-07T04:25:40.796Z,-23463.96
2023-12-07T04:28:11.169Z,-23464.13
2023-12-07T04:30:41.285Z,-23463.74
2023-12-07T04:33:12.377Z,-23463.36
2023-12-07T04:35:40.071Z,-23462.92
2023-12-07T04:38:09.673Z,-23462.50
2023-12-07T04:40:38.041Z,-23462.13
2023-12-07T04:43:06.244Z,-23461.81
2023-12-07T04:45:34.394Z,-23461.39
2023-12-07T04:48:03.897Z,-23461.04
2023-12-07T04:50:33.222Z,-23460.38
2023-12-07T04:53:01.834Z,-23459.68
2023-12-07T04:55:31.222Z,-23459.39
2023-12-07T04:58:00.237Z,-23458.34
2023-12-07T05:00:28.739Z,-23457.38
2023-12-07T05:02:56.684Z,-23456.66
2023-12-07T05:05:25.802Z,-23456.18
2023-12-07T05:07:55.131Z,-23455.80
2023-12-07T05:10:24.701Z,-23455.57
2023-12-07T05:12:52.772Z,-23454.75
2023-12-07T05:15:21.030Z,-23454.18
2023-12-07T05:17:50.613Z,-23453.73
2023-12-07T05:20:23.670Z,-23453.63
2023-12-07T05:22:51.833Z,-23453.22
2023-12-07T05:25:20.693Z,-23453.09
2023-12-07T05:27:48.548Z,-23452.84
2023-12-07T05:30:16.424Z,-23452.65
2023-12-07T05:32:44.299Z,-23451.85
2023-12-07T05:35:12.231Z,-23451.15
2023-12-07T05:37:40.279Z,-23450.80
2023-12-07T05:40:09.673Z,-23450.55
2023-12-07T05:42:37.415Z,-23450.42
2023-12-07T05:45:08.025Z,-23450.11
2023-12-07T05:47:36.439Z,-23450.01
2023-12-07T05:50:04.532Z,-23449.50
2023-12-07T05:52:32.274Z,-23449.12
2023-12-07T05:55:00.515Z,-23448.36
2023-12-07T05:57:28.333Z,-23447.94
2023-12-07T05:59:56.096Z,-23448.35
2023-12-07T06:02:24.192Z,-23448.74
2023-12-07T06:04:53.061Z,-23448.39
2023-12-07T06:07:21.010Z,-23448.00
2023-12-07T06:09:48.812Z,-23448.42
2023-12-07T06:12:16.605Z,-23448.39
2023-12-07T06:14:45.773Z,-23447.94
2023-12-07T06:17:13.748Z,-23448.10
2023-12-07T06:19:41.488Z,-23448.93
2023-12-07T06:22:10.018Z,-23450.01
2023-12-07T06:24:38.118Z,-23450.93
2023-12-07T06:27:06.259Z,-23451.28
2023-12-07T06:29:34.349Z,-23450.99
2023-12-07T06:32:02.087Z,-23451.28
2023-12-07T06:34:29.899Z,-23452.33
2023-12-07T06:36:58.023Z,-23452.81
2023-12-07T06:39:25.934Z,-23453.19
2023-12-07T06:41:53.613Z,-23453.79
2023-12-07T06:44:21.614Z,-23454.30
2023-12-07T06:46:49.190Z,-23455.19
2023-12-07T06:49:17.704Z,-23456.37
2023-12-07T06:51:45.325Z,-23457.54
2023-12-07T06:54:13.018Z,-23458.44
2023-12-07T06:56:40.841Z,-23459.16
2023-12-07T06:59:09.266Z,-23459.42
2023-12-07T07:01:37.066Z,-23459.99
2023-12-07T07:04:04.876Z,-23460.47
2023-12-07T07:06:32.630Z,-23461.68
2023-12-07T07:09:00.979Z,-23462.41
2023-12-07T07:11:30.154Z,-23463.46
2023-12-07T07:13:57.870Z,-23464.44
2023-12-07T07:16:25.498Z,-23465.56
2023-12-07T07:18:53.219Z,-23467.15
2023-12-07T07:21:21.098Z,-23469.75
2023-12-07T07:23:48.705Z,-23471.56
2023-12-07T07:26:18.109Z,-23473.79
2023-12-07T07:28:45.735Z,-23475.88
2023-12-07T07:31:13.759Z,-23477.63
2023-12-07T07:33:41.332Z,-23479.38
2023-12-07T07:36:09.381Z,-23480.58
2023-12-07T07:38:37.179Z,-23482.23
2023-12-07T07:41:05.051Z,-23483.89
2023-12-07T07:43:32.820Z,-23485.54
2023-12-07T07:46:00.526Z,-23486.62
2023-12-07T07:48:28.234Z,-23487.41
2023-12-07T07:50:56.208Z,-23488.56
2023-12-07T07:53:23.908Z,-23489.70
2023-12-07T07:55:53.128Z,-23491.22
2023-12-07T07:58:20.804Z,-23492.46
2023-12-07T08:00:48.658Z,-23492.68
2023-12-07T08:03:16.335Z,-23492.75
2023-12-07T08:05:43.980Z,-23494.02
2023-12-07T08:08:11.776Z,-23495.74
2023-12-07T08:10:53.701Z,-23497.04
2023-12-07T08:13:24.190Z,-23498.15
2023-12-07T08:15:53.739Z,-23498.44
2023-12-07T08:18:23.919Z,-23498.28
2023-12-07T08:20:51.699Z,-23498.63
2023-12-07T08:23:19.278Z,-23499.90
2023-12-07T08:25:46.974Z,-23501.07
2023-12-07T08:28:15.355Z,-23501.20
2023-12-07T08:30:43.116Z,-23501.26
2023-12-07T08:33:10.722Z,-23501.45
2023-12-07T08:35:38.435Z,-23502.50
2023-12-07T08:38:07.257Z,-23503.17
2023-12-07T08:40:34.798Z,-23502.91
2023-12-07T08:45:30.107Z,-23502.37
2023-12-07T08:47:57.741Z,-23502.82
2023-12-07T08:50:25.394Z,-23502.28
2023-12-07T08:52:56.902Z,-23502.06
2023-12-07T08:55:31.126Z,-23502.50
2023-12-07T08:57:58.938Z,-23503.07
2023-12-07T09:00:26.950Z,-23504.31
2023-12-07T09:02:54.815Z,-23505.26
2023-12-07T09:05:22.387Z,-23505.64
2023-12-07T09:07:50.093Z,-23505.07
2023-12-07T09:10:18.131Z,-23505.29
2023-12-07T09:12:45.749Z,-23506.50
2023-12-07T09:15:13.498Z,-23506.79
2023-12-07T09:17:41.316Z,-23506.60
2023-12-07T09:20:14.035Z,-23506.66
2023-12-07T09:22:46.444Z,-23507.20
2023-12-07T09:25:14.394Z,-23506.94
2023-12-07T09:27:42.090Z,-23506.44
2023-12-07T09:30:14.199Z,-23505.93
2023-12-07T09:32:44.823Z,-23505.45
2023-12-07T09:35:20.513Z,-23506.63
2023-12-07T09:37:50.149Z,-23508.21
2023-12-07T09:40:19.030Z,-23508.54
2023-12-07T09:42:47.481Z,-23508.82
2023-12-07T09:45:17.881Z,-23510.47
2023-12-07T09:47:50.675Z,-23511.93
2023-12-07T09:50:24.916Z,-23511.17
2023-12-07T09:53:01.146Z,-23511.58
2023-12-07T09:55:35.750Z,-23512.00
2023-12-07T09:58:08.543Z,-23511.74
2023-12-07T10:00:38.104Z,-23511.96
2023-12-07T10:03:09.625Z,-23512.63
2023-12-07T10:05:54.392Z,-23513.07
2023-12-07T10:08:32.627Z,-23512.92
2023-12-07T10:11:10.359Z,-23513.01
2023-12-07T10:13:38.402Z,-23512.92
2023-12-07T10:16:17.038Z,-23514.06
2023-12-07T10:18:46.062Z,-23515.55
2023-12-07T10:21:16.062Z,-23515.71
2023-12-07T10:23:49.907Z,-23516.25
2023-12-07T10:26:22.674Z,-23516.28
2023-12-07T10:28:56.168Z,-23516.85
2023-12-07T10:31:25.691Z,-23518.59
2023-12-07T10:33:53.934Z,-23518.88
2023-12-07T10:36:23.441Z,-23519.39
2023-12-07T10:38:59.009Z,-23521.23
2023-12-07T10:41:29.912Z,-23523.13
2023-12-07T10:44:01.639Z,-23524.44
2023-12-07T10:46:29.847Z,-23524.95
2023-12-07T10:49:03.303Z,-23525.87
2023-12-07T10:51:47.615Z,-23526.18
2023-12-07T10:54:16.733Z,-23526.56
2023-12-07T10:56:46.457Z,-23527.01
2023-12-07T11:01:46.863Z,-23527.93
2023-12-07T11:04:17.266Z,-23528.66
2023-12-07T11:06:48.556Z,-23529.00
2023-12-07T11:09:28.676Z,-23529.58
2023-12-07T11:12:13.917Z,-23529.74
2023-12-07T11:14:43.408Z,-23530.43
2023-12-07T11:17:13.070Z,-23531.17
2023-12-07T11:19:44.977Z,-23531.48
2023-12-07T11:22:14.969Z,-23532.15
2023-12-07T11:24:56.943Z,-23533.04
2023-12-07T11:27:27.240Z,-23533.73
2023-12-07T11:29:56.795Z,-23534.65
2023-12-07T11:32:29.177Z,-23535.73
2023-12-07T11:35:06.218Z,-23537.25
2023-12-07T11:38:09.815Z,-23538.33
2023-12-07T11:40:39.893Z,-23539.83
2023-12-07T11:43:08.531Z,-23540.93
2023-12-07T11:45:50.257Z,-23541.76
2023-12-07T11:48:22.011Z,-23542.78
2023-12-07T11:51:00.536Z,-23543.29
2023-12-07T11:53:33.467Z,-23544.23
2023-12-07T11:56:02.639Z,-23545.69
2023-12-07T11:58:33.062Z,-23546.55
2023-12-07T12:01:02.199Z,-23546.27
2023-12-07T12:03:30.757Z,-23545.79
2023-12-07T12:05:58.400Z,-23545.03
2023-12-07T12:08:26.180Z,-23544.04
2023-12-07T12:10:58.492Z,-23543.85
2023-12-07T12:13:36.336Z,-23544.49
2023-12-07T12:16:06.756Z,-23545.38
2023-12-07T12:18:36.447Z,-23545.92
2023-12-07T12:21:04.917Z,-23546.21
2023-12-07T12:23:32.716Z,-23546.27
2023-12-07T12:26:00.533Z,-23545.98
2023-12-07T12:28:28.653Z,-23545.38
2023-12-07T12:30:56.476Z,-23545.53
2023-12-07T12:33:24.465Z,-23546.80
2023-12-07T12:36:04.415Z,-23547.41
2023-12-07T12:38:38.683Z,-23547.72
2023-12-07T12:41:11.036Z,-23548.01
2023-12-07T12:43:38.733Z,-23547.95
2023-12-07T12:46:07.475Z,-23548.48
2023-12-07T12:48:35.760Z,-23549.21
2023-12-07T12:51:11.899Z,-23549.57
2023-12-07T12:53:48.566Z,-23549.54
2023-12-07T12:56:17.976Z,-23549.09
2023-12-07T12:58:45.823Z,-23548.96
2023-12-07T13:01:13.585Z,-23549.60
2023-12-07T13:03:41.294Z,-23549.28
2023-12-07T13:06:09.243Z,-23549.21
2023-12-07T13:08:36.862Z,-23549.50
2023-12-07T13:11:04.666Z,-23550.07
2023-12-07T13:13:32.430Z,-23551.18
2023-12-07T13:16:00.105Z,-23551.56
2023-12-07T13:18:27.831Z,-23551.03
2023-12-07T13:20:56.770Z,-23551.21
2023-12-07T13:23:24.552Z,-23551.56
2023-12-07T13:25:52.161Z,-23552.26
2023-12-07T13:28:19.799Z,-23553.28
2023-12-07T13:30:47.578Z,-23554.32
2023-12-07T13:33:22.293Z,-23555.14
2023-12-07T13:35:56.833Z,-23555.36
2023-12-07T13:38:25.095Z,-23556.09
2023-12-07T13:40:53.080Z,-23556.63
2023-12-07T13:43:20.749Z,-23557.23
2023-12-07T13:45:48.670Z,-23557.93
2023-12-07T13:48:16.790Z,-23557.52
2023-12-07T13:50:44.615Z,-23557.87
2023-12-07T13:53:13.736Z,-23558.79
2023-12-07T13:55:41.707Z,-23559.58
2023-12-07T13:58:09.415Z,-23560.28
2023-12-07T14:00:38.854Z,-23560.59
2023-12-07T14:03:06.520Z,-23560.75
2023-12-07T14:05:34.393Z,-23561.20
2023-12-07T14:08:02.101Z,-23562.11
2023-12-07T14:10:31.471Z,-23563.19
2023-12-07T14:13:00.105Z,-23563.67
2023-12-07T14:15:39.277Z,-23564.46
2023-12-07T14:18:12.742Z,-23565.28
2023-12-07T14:20:55.401Z,-23566.21
2023-12-07T14:23:31.548Z,-23566.55
2023-12-07T14:26:04.354Z,-23566.93
2023-12-07T14:28:35.650Z,-23566.87
2023-12-07T14:31:05.316Z,-23567.15
2023-12-07T14:33:33.453Z,-23567.35
2023-12-07T14:36:01.536Z,-23567.73
2023-12-07T14:38:29.547Z,-23568.30
2023-12-07T14:40:57.265Z,-23568.49
2023-12-07T14:43:24.905Z,-23568.33
2023-12-07T14:45:53.757Z,-23568.42
2023-12-07T14:48:21.491Z,-23568.77
2023-12-07T14:50:49.312Z,-23568.90
2023-12-07T14:53:16.825Z,-23568.90
2023-12-07T14:55:44.474Z,-23569.41
2023-12-07T14:58:12.346Z,-23569.76
2023-12-07T15:00:41.366Z,-23570.13
2023-12-07T15:03:10.203Z,-23570.32
2023-12-07T15:05:38.166Z,-23570.77
2023-12-07T15:08:07.435Z,-23570.99
2023-12-07T15:10:35.234Z,-23571.18
2023-12-07T15:13:03.259Z,-23571.12
2023-12-07T15:15:31.724Z,-23570.64
2023-12-07T15:18:00.726Z,-23569.63
2023-12-07T15:20:28.806Z,-23569.54
2023-12-07T15:22:56.400Z,-23569.38
2023-12-07T15:25:24.172Z,-23569.44
2023-12-07T15:27:51.790Z,-23569.66
2023-12-07T15:30:19.354Z,-23569.79
2023-12-07T15:32:47.119Z,-23569.91
2023-12-07T15:35:14.834Z,-23570.26
2023-12-07T15:37:42.953Z,-23570.42
2023-12-07T15:40:11.514Z,-23569.72
2023-12-07T15:42:40.172Z,-23569.22
2023-12-07T15:45:08.688Z,-23569.76
2023-12-07T15:47:36.529Z,-23570.74
2023-12-07T15:50:04.504Z,-23571.00
2023-12-07T15:52:32.012Z,-23571.03
2023-12-07T15:54:59.656Z,-23571.06
2023-12-07T15:57:27.451Z,-23571.43
2023-12-07T15:59:55.437Z,-23571.78
2023-12-07T16:02:23.340Z,-23571.91
2023-12-07T16:04:51.038Z,-23571.97
2023-12-07T16:07:18.583Z,-23571.46
2023-12-07T16:09:46.162Z,-23571.34
2023-12-07T16:12:13.709Z,-23571.88
2023-12-07T16:14:41.515Z,-23572.22
2023-12-07T16:17:09.535Z,-23572.77
2023-12-07T16:19:37.526Z,-23573.49
2023-12-07T16:22:05.775Z,-23574.13
2023-12-07T16:24:34.476Z,-23574.19
2023-12-07T16:27:05.315Z,-23574.67
2023-12-07T16:29:35.306Z,-23575.33
2023-12-07T16:32:03.221Z,-23575.58
2023-12-07T16:34:34.490Z,-23575.49
2023-12-07T16:37:02.265Z,-23575.40
2023-12-07T16:39:30.822Z,-23575.62
2023-12-07T16:42:02.170Z,-23575.65
2023-12-07T16:44:31.465Z,-23576.13
2023-12-07T16:46:59.416Z,-23576.95
2023-12-07T16:49:28.534Z,-23577.07
2023-12-07T16:51:56.807Z,-23577.53
2023-12-07T16:54:25.444Z,-23578.38
2023-12-07T16:56:53.393Z,-23578.19
2023-12-07T16:59:21.075Z,-23577.49
2023-12-07T17:01:48.755Z,-23577.20
2023-12-07T17:04:16.535Z,-23577.07
2023-12-07T17:06:50.980Z,-23577.55
2023-12-07T17:09:24.497Z,-23578.76
2023-12-07T17:11:52.251Z,-23580.40
2023-12-07T17:14:19.847Z,-23581.20
2023-12-07T17:16:48.739Z,-23581.54
2023-12-07T17:19:16.556Z,-23581.42
2023-12-07T17:21:44.382Z,-23581.23
2023-12-07T17:24:13.351Z,-23581.29
2023-12-07T17:26:52.222Z,-23581.23
2023-12-07T17:29:22.295Z,-23580.50
2023-12-07T17:31:50.151Z,-23580.66
2023-12-07T17:34:18.677Z,-23580.94
2023-12-07T17:36:46.543Z,-23581.76
2023-12-07T17:39:16.358Z,-23582.56
2023-12-07T17:41:44.202Z,-23583.13
2023-12-07T17:44:11.950Z,-23583.67
2023-12-07T17:46:39.543Z,-23583.51
2023-12-07T17:49:09.478Z,-23583.51
2023-12-07T17:51:38.242Z,-23584.08
2023-12-07T17:54:06.011Z,-23584.56
2023-12-07T17:56:33.833Z,-23584.97
2023-12-07T17:59:01.741Z,-23585.38
2023-12-07T18:01:29.601Z,-23585.70
2023-12-07T18:03:59.862Z,-23585.70
2023-12-07T18:06:28.275Z,-23585.47
2023-12-07T18:08:56.037Z,-23585.51
2023-12-07T18:11:24.376Z,-23585.51
2023-12-07T18:13:53.586Z,-23585.73
2023-12-07T18:16:21.458Z,-23585.82
2023-12-07T18:18:49.451Z,-23585.63
2023-12-07T18:21:17.633Z,-23585.57
2023-12-07T18:23:46.513Z,-23585.82
2023-12-07T18:26:14.376Z,-23586.36
2023-12-07T18:28:42.193Z,-23586.99
2023-12-07T18:31:09.998Z,-23586.90
2023-12-07T18:33:38.366Z,-23586.68
2023-12-07T18:36:07.526Z,-23586.96
2023-12-07T18:38:35.338Z,-23587.44
2023-12-07T18:41:02.888Z,-23587.66
2023-12-07T18:43:30.598Z,-23588.01
2023-12-07T18:45:58.386Z,-23588.11
2023-12-07T18:48:26.177Z,-23588.42
2023-12-07T18:50:53.953Z,-23588.42
2023-12-07T18:53:22.623Z,-23588.73
2023-12-07T18:55:50.637Z,-23589.18
2023-12-07T18:58:18.774Z,-23588.77
2023-12-07T19:00:47.284Z,-23588.55
2023-12-07T19:03:15.683Z,-23588.39
2023-12-07T19:05:43.496Z,-23588.39
2023-12-07T19:08:12.439Z,-23588.80
2023-12-07T19:10:42.740Z,-23589.25
2023-12-07T19:13:10.636Z,-23589.56
2023-12-07T19:15:38.172Z,-23589.69
2023-12-07T19:18:06.945Z,-23590.16
2023-12-07T19:20:40.142Z,-23590.35
2023-12-07T19:23:08.140Z,-23590.64
2023-12-07T19:25:36.201Z,-23590.83
2023-12-07T19:28:04.274Z,-23591.11
2023-12-07T19:30:32.098Z,-23591.40
2023-12-07T19:33:03.754Z,-23591.81
2023-12-07T19:35:31.837Z,-23592.35
2023-12-07T19:37:59.595Z,-23592.76
2023-12-07T19:40:27.499Z,-23592.76
2023-12-07T19:42:55.232Z,-23592.64
2023-12-07T19:45:22.758Z,-23592.54
2023-12-07T19:47:50.637Z,-23592.82
2023-12-07T19:50:18.406Z,-23592.57
2023-12-07T19:52:45.946Z,-23592.73
2023-12-07T19:55:13.737Z,-23593.74
2023-12-07T19:57:43.802Z,-23594.50
2023-12-07T20:00:12.252Z,-23594.63
2023-12-07T20:02:39.921Z,-23594.82
2023-12-07T20:05:08.419Z,-23595.20
2023-12-07T20:07:37.955Z,-23596.05
2023-12-07T20:10:06.797Z,-23596.59
2023-12-07T20:12:36.384Z,-23596.37
2023-12-07T20:15:04.950Z,-23595.54
2023-12-07T20:17:32.627Z,-23595.39
2023-12-07T20:20:00.380Z,-23595.51
2023-12-07T20:22:27.914Z,-23595.99
2023-12-07T20:24:55.458Z,-23596.59
2023-12-07T20:27:23.399Z,-23596.75
2023-12-07T20:29:51.156Z,-23596.62
2023-12-07T20:32:18.656Z,-23596.34
2023-12-07T20:34:49.129Z,-23596.69
2023-12-07T20:37:19.192Z,-23597.17
2023-12-07T20:39:47.300Z,-23597.48
2023-12-07T20:42:15.120Z,-23597.13
2023-12-07T20:44:42.841Z,-23596.78
2023-12-07T20:47:10.867Z,-23596.34
2023-12-07T20:49:40.146Z,-23595.61
2023-12-07T20:52:08.437Z,-23595.71
2023-12-07T20:54:35.994Z,-23596.24
2023-12-07T20:57:03.692Z,-23596.40
2023-12-07T20:59:31.279Z,-23596.56
2023-12-07T21:01:59.924Z,-23597.36
2023-12-07T21:04:27.504Z,-23597.45
2023-12-07T21:06:55.456Z,-23597.61
2023-12-07T21:09:23.089Z,-23598.43
2023-12-07T21:11:50.774Z,-23598.68
2023-12-07T21:14:18.806Z,-23598.62
2023-12-07T21:16:46.362Z,-23599.19
2023-12-07T21:19:14.078Z,-23598.56
2023-12-07T21:21:41.841Z,-23597.96
2023-12-07T21:24:09.383Z,-23598.21
2023-12-07T21:26:37.032Z,-23598.78
2023-12-07T21:29:04.606Z,-23599.70
2023-12-07T21:31:32.361Z,-23600.62
2023-12-07T21:34:00.110Z,-23601.21
2023-12-07T21:36:27.824Z,-23601.85
2023-12-07T21:38:55.509Z,-23602.13
2023-12-07T21:41:23.155Z,-23602.01
2023-12-07T21:43:50.646Z,-23602.29
2023-12-07T21:46:18.896Z,-23602.67
2023-12-07T21:48:46.567Z,-23603.12
2023-12-07T21:51:14.232Z,-23603.40
2023-12-07T21:53:41.725Z,-23603.72
2023-12-07T21:56:09.414Z,-23603.31
2023-12-07T21:58:37.107Z,-23602.68
2023-12-07T22:01:04.806Z,-23602.74
2023-12-07T22:03:32.578Z,-23602.32
2023-12-07T22:06:00.243Z,-23602.13
2023-12-07T22:08:27.924Z,-23601.97
2023-12-07T22:10:55.861Z,-23602.52
2023-12-07T22:13:23.976Z,-23603.31
2023-12-07T22:15:51.590Z,-23603.50
2023-12-07T22:18:19.345Z,-23603.18
2023-12-07T22:20:47.034Z,-23603.08
2023-12-07T22:23:14.683Z,-23603.53
2023-12-07T22:25:42.378Z,-23603.75
2023-12-07T22:28:09.900Z,-23603.78
2023-12-07T22:30:37.345Z,-23604.20
2023-12-07T22:33:05.081Z,-23604.64
2023-12-07T22:35:32.838Z,-23605.14
2023-12-07T22:38:00.476Z,-23605.40
2023-12-07T22:40:28.036Z,-23606.00
2023-12-07T22:42:55.550Z,-23606.85
2023-12-07T22:45:23.076Z,-23607.17
2023-12-07T22:47:50.818Z,-23607.65
2023-12-07T22:50:18.923Z,-23607.62
2023-12-07T22:52:46.906Z,-23607.52
2023-12-07T22:55:14.608Z,-23607.87
2023-12-07T22:57:42.197Z,-23607.55
2023-12-07T23:00:20.803Z,-23607.23
2023-12-07T23:02:48.790Z,-23607.68
2023-12-07T23:05:17.086Z,-23608.31
2023-12-07T23:07:44.724Z,-23609.17
2023-12-07T23:10:12.361Z,-23609.61
2023-12-07T23:12:39.952Z,-23609.80
2023-12-07T23:15:08.658Z,-23610.30
2023-12-07T23:17:36.456Z,-23610.40
2023-12-07T23:20:04.807Z,-23610.94
2023-12-07T23:22:32.348Z,-23611.19
2023-12-07T23:24:59.923Z,-23611.32
2023-12-07T23:27:27.714Z,-23611.35
2023-12-07T23:29:55.696Z,-23611.73
2023-12-07T23:32:23.230Z,-23612.52
2023-12-07T23:34:51.366Z,-23612.90
2023-12-07T23:37:18.978Z,-23613.21
2023-12-07T23:39:46.430Z,-23613.53
2023-12-07T23:42:13.946Z,-23614.17
2023-12-07T23:44:41.519Z,-23614.29
2023-12-07T23:47:08.977Z,-23614.42
2023-12-07T23:49:36.558Z,-23614.39
2023-12-07T23:52:04.291Z,-23613.53
2023-12-07T23:54:31.866Z,-23613.53
2023-12-07T23:56:59.536Z,-23613.85
2023-12-07T23:59:27.592Z,-23614.77
